Carluke, United Kingdom
Current Conditions -  °F | °C
As of 2:20 PM on Friday 24 Oct 2014 (Local Time) from EGPH Reporting Station
Rain Showers Rain Showers  
Wind Chill: 52°   Ceiling: 4400
Heat Index: 52°   Visibility: 6mi
Dew Point: 43°   Wind: 18mph
Humidity: 71%   Direction: 240°WSW
Pressure: 29.74"   Gusts: NA
Location:  55.74°N, 3.83°W
Report Text: EGPH 241320Z 24016KT 9000 -SHRA FEW026 BKN044 11/06 Q1007
Loading
Personal Weather Stations






























Interactive Weather Map
Tropical Storm Tracking
New forecast layout! Learn more

10-Day Weather Forecast

Advertisements
Track Severe Weather on mobile